Valor — WDD8691 — position and weather

sailwx.info

Track history (hours):
 
Tides and Currents Weather Stations Pressure Air Temp Water Temp Dewpoint Dewpoint Depression Visibility Wind Speed Wind Dir Waves Ship Positions

Valor

Owner: Crowley Marine Services, Seattle, WA. More information available from US FCC via Universal Licensing System and Coast Guard Vessel Documentation Center.

Last reported at 2017-Nov-19 19:28 UTC. Time now 2017-Nov-22 15:02 UTC.
Position N 38°02' W 122°09'.

Length 8 m; draft 5.5 m.

Type: Tug. MMSI: 367301480.

Date/timePositionNaut miles runAvg speedWind from/ knotsBaromVisibWave heightAir tempDewpointWater temp
2017-Nov-19 19:28N 38°02' W 122°09'1 1.3
2017-Nov-19 18:52N 38°02' W 122°08'0 0.4
2017-Nov-19 17:56N 38°03' W 122°08'2 4.1
2017-Nov-19 17:30N 38°02' W 122°10'4 8.5
2017-Nov-19 17:00N 38°04' W 122°15'810.1
2017-Nov-19 16:13N 38°01' W 122°24'210.9
2017-Nov-19 16:00N 37°59' W 122°26'5 9.8
2017-Nov-19 15:30N 37°54' W 122°26'3 7.0
2017-Nov-19 15:00N 37°50' W 122°27'4 7.5
2017-Nov-19 14:30N 37°48' W 122°31'1 1.2
2017-Nov-19 14:00N 37°48' W 122°30'2 3.9
2017-Nov-19 13:30N 37°49' W 122°28'3 6.4
2017-Nov-19 13:00N 37°48' W 122°24'0 0.0
2017-Nov-19 12:30N 37°48' W 122°24'0 0.0
2017-Nov-19 12:00N 37°48' W 122°24'0 0.0
2017-Nov-19 11:30N 37°48' W 122°24'0 0.0
2017-Nov-19 11:00N 37°48' W 122°24'0 0.0
2017-Nov-19 10:30N 37°48' W 122°24'0 0.0
2017-Nov-19 10:00N 37°48' W 122°24'0 0.0
2017-Nov-19 09:30N 37°48' W 122°24'0 0.0
2017-Nov-19 09:00N 37°48' W 122°24'0 0.0
2017-Nov-19 08:30N 37°48' W 122°24'0 0.0
2017-Nov-19 08:00N 37°48' W 122°24'0 0.0
2017-Nov-19 07:30N 37°48' W 122°24'0 0.0
2017-Nov-19 07:00N 37°48' W 122°24'0 0.0
2017-Nov-19 06:30N 37°48' W 122°24'0 0.0
2017-Nov-19 06:00N 37°48' W 122°24'0 0.0
2017-Nov-19 05:30N 37°48' W 122°24'0 0.0
2017-Nov-19 05:00N 37°48' W 122°24'0 0.0
2017-Nov-19 04:30N 37°48' W 122°24'0 0.0
2017-Nov-19 04:00N 37°48' W 122°24'0 0.0
2017-Nov-19 03:30N 37°48' W 122°24'4 8.1
2017-Nov-19 03:00N 37°48' W 122°19'1 2.5
2017-Nov-19 02:30N 37°48' W 122°17'2 3.3
2017-Nov-19 02:00N 37°48' W 122°19'3 6.3
2017-Nov-19 01:30N 37°48' W 122°23'0 1.0
2017-Nov-19 01:00N 37°48' W 122°24'0 0.0
2017-Nov-19 00:30N 37°48' W 122°24'0 0.0
2017-Nov-19 00:00N 37°48' W 122°24'0 0.0
2017-Nov-18 23:30N 37°48' W 122°24'0 0.1
2017-Nov-18 23:00N 37°48' W 122°24'0 0.1
2017-Nov-18 22:30N 37°48' W 122°24'0 0.0
2017-Nov-18 22:00N 37°48' W 122°24'0 0.0
2017-Nov-18 21:30N 37°48' W 122°24'0 0.0
2017-Nov-18 21:00N 37°48' W 122°24'0 0.0
2017-Nov-18 20:30N 37°48' W 122°24'0 0.0
2017-Nov-18 20:00N 37°48' W 122°24'2 3.1
2017-Nov-18 19:30N 37°49' W 122°26'4 7.7
2017-Nov-18 19:00N 37°49' W 122°30'1 1.6
2017-Nov-18 18:30N 37°49' W 122°29'4 8.4
2017-Nov-18 18:00N 37°51' W 122°25'4 7.7
2017-Nov-18 17:30N 37°55' W 122°27'4 7.8
2017-Nov-18 16:58N 37°59' W 122°26'510.0
2017-Nov-18 16:30N 38°02' W 122°22'4 8.1
2017-Nov-18 16:00N 38°04' W 122°17'1 2.2
2017-Nov-18 15:30N 38°03' W 122°16'0 0.0
2017-Nov-18 14:57N 38°03' W 122°16'1 0.2
2017-Nov-18 10:48N 38°03' W 122°15'0 0.2
2017-Nov-18 10:30N 38°03' W 122°15'0 0.0
2017-Nov-18 10:00N 38°03' W 122°15'0 0.0
2017-Nov-18 09:23N 38°03' W 122°15'0 0.0
2017-Nov-18 09:00N 38°03' W 122°15'0 0.0
2017-Nov-18 08:30N 38°03' W 122°15'0 0.0
2017-Nov-18 07:57N 38°03' W 122°15'0 0.1
2017-Nov-18 07:30N 38°03' W 122°15'0 0.1
2017-Nov-18 07:00N 38°03' W 122°15'0 0.0
2017-Nov-18 02:53N 38°03' W 122°15'3 7.2
2017-Nov-18 02:29N 38°03' W 122°11'2 0.1
2017-Nov-17 05:27N 38°02' W 122°08'0 0.0
2017-Nov-16 04:33N 38°02' W 122°08'0 0.1
2017-Nov-16 04:23N 38°02' W 122°08'0 0.0
2017-Nov-16 03:59N 38°02' W 122°08'1 1.4
2017-Nov-16 03:30N 38°02' W 122°09'1 1.2
2017-Nov-16 02:58N 38°02' W 122°08'2 0.3
2017-Nov-15 21:20N 38°03' W 122°10'3 7.9
2017-Nov-15 21:00N 38°04' W 122°13'2 3.7
2017-Nov-15 20:30N 38°03' W 122°16'0 0.0
2017-Nov-15 19:59N 38°03' W 122°16'0 0.2
2017-Nov-15 19:28N 38°04' W 122°16'1 1.0
2017-Nov-15 18:58N 38°04' W 122°15'6 3.7
2017-Nov-15 17:27N 38°02' W 122°08'2 4.2
2017-Nov-15 17:00N 38°03' W 122°10'610.4
2017-Nov-15 16:28N 38°03' W 122°17'6 8.5
2017-Nov-15 15:46N 38°01' W 122°24'312.3
2017-Nov-15 15:30N 37°58' W 122°26'611.7
2017-Nov-15 15:00N 37°52' W 122°25'510.5
2017-Nov-15 14:30N 37°48' W 122°22'3 6.1
2017-Nov-15 14:00N 37°45' W 122°20'0 0.3
2017-Nov-15 13:30N 37°45' W 122°20'3 5.7
2017-Nov-15 13:00N 37°47' W 122°23'2 3.1
2017-Nov-15 12:30N 37°48' W 122°24'0 0.0
2017-Nov-15 12:00N 37°48' W 122°24'0 0.0
2017-Nov-15 11:30N 37°48' W 122°24'0 0.0
2017-Nov-15 11:00N 37°48' W 122°24'0 0.0
2017-Nov-15 10:30N 37°48' W 122°24'0 0.0
2017-Nov-15 10:00N 37°48' W 122°24'0 0.0
2017-Nov-15 09:30N 37°48' W 122°24'0 0.0
2017-Nov-15 09:00N 37°48' W 122°24'0 0.0
2017-Nov-15 08:30N 37°48' W 122°24'0 0.0
2017-Nov-15 08:00N 37°48' W 122°24'0 0.0
2017-Nov-15 07:30N 37°48' W 122°24'0 0.0
2017-Nov-15 07:00N 37°48' W 122°24'0 0.0
2017-Nov-15 06:30N 37°48' W 122°24'0 0.0
2017-Nov-15 06:00N 37°48' W 122°24'0 0.0
2017-Nov-15 05:30N 37°48' W 122°24'0 0.0
2017-Nov-15 05:00N 37°48' W 122°24'0 0.0
2017-Nov-15 04:30N 37°48' W 122°24'0 0.0
2017-Nov-15 04:00N 37°48' W 122°24'0 0.0
2017-Nov-15 03:30N 37°48' W 122°24'0 0.0
2017-Nov-15 03:00N 37°48' W 122°24'0 0.0
2017-Nov-15 02:30N 37°48' W 122°24'0 0.0
2017-Nov-15 02:00N 37°48' W 122°24'0 0.0
2017-Nov-15 01:30N 37°48' W 122°24'0 0.9
2017-Nov-15 01:00N 37°48' W 122°23'4 7.1
2017-Nov-15 00:30N 37°48' W 122°19'0 0.0
2017-Nov-15 00:00N 37°48' W 122°19'1 2.5
2017-Nov-14 23:30N 37°48' W 122°17'1 1.1
2017-Nov-14 23:00N 37°47' W 122°18'2 3.5
2017-Nov-14 22:30N 37°48' W 122°20'3 5.2
2017-Nov-14 22:00N 37°48' W 122°23'0 0.8
2017-Nov-14 21:30N 37°48' W 122°24'0 0.1
2017-Nov-14 21:00N 37°48' W 122°24'0 0.1
2017-Nov-14 20:30N 37°48' W 122°24'0 0.0
2017-Nov-14 20:00N 37°48' W 122°24'0 0.0
2017-Nov-14 19:30N 37°48' W 122°24'2 4.4
2017-Nov-14 19:00N 37°50' W 122°24'5 9.3
2017-Nov-14 18:30N 37°55' W 122°25'1 1.6
2017-Nov-14 18:00N 37°55' W 122°25'0 0.1
2017-Nov-14 17:30N 37°55' W 122°25'0 0.7
2017-Nov-14 16:55N 37°56' W 122°25'0 0.0
2017-Nov-14 16:25N 37°56' W 122°25'0 0.0
2017-Nov-14 15:57N 37°56' W 122°25'0 0.0
2017-Nov-14 15:30N 37°56' W 122°25'0 0.0
2017-Nov-14 15:00N 37°56' W 122°25'0 0.3
2017-Nov-14 14:27N 37°56' W 122°25'0 0.5
2017-Nov-14 14:00N 37°56' W 122°25'3 5.9
2017-Nov-14 13:30N 37°53' W 122°25'4 7.2
2017-Nov-14 13:00N 37°50' W 122°28'2 4.9
2017-Nov-14 12:30N 37°48' W 122°30'0 0.7
2017-Nov-14 12:00N 37°48' W 122°29'2 4.7
2017-Nov-14 11:30N 37°50' W 122°28'5 9.3
2017-Nov-14 11:00N 37°54' W 122°25'1 2.9
2017-Nov-14 10:30N 37°56' W 122°25'0 0.0
2017-Nov-14 10:00N 37°56' W 122°25'0 0.0
2017-Nov-14 09:30N 37°56' W 122°25'0 0.0
2017-Nov-14 08:57N 37°56' W 122°25'3 6.6
2017-Nov-14 08:27N 37°59' W 122°26'510.4
2017-Nov-14 08:00N 38°02' W 122°21'4 8.6
2017-Nov-14 07:30N 38°03' W 122°16'0 0.8
2017-Nov-14 07:00N 38°03' W 122°16'0 0.0
2017-Nov-14 06:26N 38°03' W 122°16'0 0.1
2017-Nov-14 06:00N 38°03' W 122°16'1 1.3
2017-Nov-14 05:27N 38°04' W 122°17'5 6.8
2017-Nov-14 04:43N 38°02' W 122°22'2 8.8
2017-Nov-14 04:29N 38°00' W 122°25'510.8
2017-Nov-14 04:00N 37°56' W 122°27'510.5
2017-Nov-14 03:30N 37°51' W 122°25'3 6.9
2017-Nov-14 03:00N 37°49' W 122°28'1 2.9
2017-Nov-14 02:30N 37°48' W 122°30'0 0.4
2017-Nov-14 02:00N 37°48' W 122°30'2 4.4
2017-Nov-14 01:30N 37°49' W 122°27'4 7.0
2017-Nov-14 01:00N 37°48' W 122°23'2 3.9
2017-Nov-14 00:30N 37°48' W 122°20'0 0.3
2017-Nov-14 00:00N 37°49' W 122°20'3 5.7
2017-Nov-13 23:30N 37°48' W 122°24'0 0.0
2017-Nov-13 23:00N 37°48' W 122°24'0 0.0
2017-Nov-13 22:30N 37°48' W 122°24'3 5.7
2017-Nov-13 22:00N 37°51' W 122°25'4 0.2
2017-Nov-13 02:00N 37°48' W 122°21'0 0.6
2017-Nov-13 01:30N 37°49' W 122°20'1 1.1
2017-Nov-13 01:00N 37°49' W 122°20'2 4.9
2017-Nov-13 00:30N 37°48' W 122°23'2 3.3
2017-Nov-13 00:00N 37°48' W 122°21'0 0.0
2017-Nov-12 23:30N 37°48' W 122°21'1 1.8
2017-Nov-12 23:01N 37°49' W 122°19'0 0.1
2017-Nov-12 22:30N 37°49' W 122°19'4 7.6
2017-Nov-12 22:00N 37°51' W 122°23'3 6.7
2017-Nov-12 21:30N 37°54' W 122°24'1 3.1
2017-Nov-12 21:00N 37°55' W 122°22'0 0.0
2017-Nov-12 20:31N 37°55' W 122°22'0 0.0
2017-Nov-12 20:01N 37°55' W 122°22'0 0.0
2017-Nov-12 19:30N 37°55' W 122°22'0 0.4
2017-Nov-12 19:00N 37°55' W 122°22'0 0.0
2017-Nov-12 18:30N 37°55' W 122°22'0 0.0
2017-Nov-12 18:00N 37°55' W 122°22'0 0.0
2017-Nov-12 17:30N 37°55' W 122°22'0 0.0
2017-Nov-12 17:00N 37°55' W 122°22'0 0.0
2017-Nov-12 16:30N 37°55' W 122°22'0 0.0
2017-Nov-12 16:00N 37°55' W 122°22'0 0.0
2017-Nov-12 15:30N 37°55' W 122°22'0 0.0
2017-Nov-12 15:00N 37°55' W 122°22'0 0.0
2017-Nov-12 14:29N 37°55' W 122°22'0 0.0
2017-Nov-12 14:00N 37°55' W 122°22'0 0.0
2017-Nov-12 13:30N 37°55' W 122°22'1 3.0
2017-Nov-12 13:00N 37°54' W 122°24'1 2.6
2017-Nov-12 12:30N 37°54' W 122°25'3 6.9
2017-Nov-12 12:00N 37°50' W 122°24'2 4.0
2017-Nov-12 11:29N 37°48' W 122°24'0 0.0
2017-Nov-12 11:00N 37°48' W 122°24'0 0.0
2017-Nov-12 10:30N 37°48' W 122°24'0 0.0
2017-Nov-12 10:00N 37°48' W 122°24'0 0.0
2017-Nov-12 09:30N 37°48' W 122°24'0 0.0
2017-Nov-12 09:00N 37°48' W 122°24'0 0.0
2017-Nov-12 08:30N 37°48' W 122°24'0 0.0
2017-Nov-12 08:00N 37°48' W 122°24'0 0.0
2017-Nov-12 07:30N 37°48' W 122°24'0 0.0
2017-Nov-12 07:00N 37°48' W 122°24'0 0.0
2017-Nov-12 06:30N 37°48' W 122°24'0 0.0
2017-Nov-12 06:00N 37°48' W 122°24'0 0.0
2017-Nov-12 05:30N 37°48' W 122°24'0 0.0
2017-Nov-12 05:00N 37°48' W 122°24'0 0.0
2017-Nov-12 04:30N 37°48' W 122°24'0 0.0
2017-Nov-12 04:00N 37°48' W 122°24'0 0.0
2017-Nov-12 03:30N 37°48' W 122°24'0 0.0
2017-Nov-12 03:00N 37°48' W 122°24'0 0.0
2017-Nov-12 02:30N 37°48' W 122°24'0 0.0
2017-Nov-12 02:00N 37°48' W 122°24'0 0.0
2017-Nov-12 01:30N 37°48' W 122°24'0 0.0
2017-Nov-12 01:00N 37°48' W 122°24'0 0.0
2017-Nov-12 00:30N 37°48' W 122°24'0 0.0
2017-Nov-12 00:00N 37°48' W 122°24'0 0.0
2017-Nov-11 23:30N 37°48' W 122°24'0 0.0
2017-Nov-11 23:00N 37°48' W 122°24'0 0.0
2017-Nov-11 22:30N 37°48' W 122°24'0 0.0
2017-Nov-11 22:00N 37°48' W 122°24'0 0.0
2017-Nov-11 21:30N 37°48' W 122°24'0 0.0
2017-Nov-11 21:00N 37°48' W 122°24'2 4.6
2017-Nov-11 20:30N 37°48' W 122°21'3 5.9
2017-Nov-11 20:01N 37°47' W 122°17'  
Track history (hours):
 
Tides and Currents Weather Stations Pressure Air Temp Water Temp Dewpoint Dewpoint Depression Visibility Wind Speed Wind Dir Waves Ship Positions

Valor

Owner: Crowley Marine Services, Seattle, WA. More information available from US FCC via Universal Licensing System and Coast Guard Vessel Documentation Center.

Last reported at 2017-Nov-19 19:28 UTC. Time now 2017-Nov-22 15:02 UTC.
Position N 38°02' W 122°09'.

Length 8 m; draft 5.5 m.

Type: Tug. MMSI: 367301480.

Date/timePositionNaut miles runAvg speedWind from/ knotsBaromVisibWave heightAir tempDewpointWater temp
2017-Nov-19 19:28N 38°02' W 122°09'1 1.3
2017-Nov-19 18:52N 38°02' W 122°08'0 0.4
2017-Nov-19 17:56N 38°03' W 122°08'2 4.1
2017-Nov-19 17:30N 38°02' W 122°10'4 8.5
2017-Nov-19 17:00N 38°04' W 122°15'810.1
2017-Nov-19 16:13N 38°01' W 122°24'210.9
2017-Nov-19 16:00N 37°59' W 122°26'5 9.8
2017-Nov-19 15:30N 37°54' W 122°26'3 7.0
2017-Nov-19 15:00N 37°50' W 122°27'4 7.5
2017-Nov-19 14:30N 37°48' W 122°31'1 1.2
2017-Nov-19 14:00N 37°48' W 122°30'2 3.9
2017-Nov-19 13:30N 37°49' W 122°28'3 6.4
2017-Nov-19 13:00N 37°48' W 122°24'0 0.0
2017-Nov-19 12:30N 37°48' W 122°24'0 0.0
2017-Nov-19 12:00N 37°48' W 122°24'0 0.0
2017-Nov-19 11:30N 37°48' W 122°24'0 0.0
2017-Nov-19 11:00N 37°48' W 122°24'0 0.0
2017-Nov-19 10:30N 37°48' W 122°24'0 0.0
2017-Nov-19 10:00N 37°48' W 122°24'0 0.0
2017-Nov-19 09:30N 37°48' W 122°24'0 0.0
2017-Nov-19 09:00N 37°48' W 122°24'0 0.0
2017-Nov-19 08:30N 37°48' W 122°24'0 0.0
2017-Nov-19 08:00N 37°48' W 122°24'0 0.0
2017-Nov-19 07:30N 37°48' W 122°24'0 0.0
2017-Nov-19 07:00N 37°48' W 122°24'0 0.0
2017-Nov-19 06:30N 37°48' W 122°24'0 0.0
2017-Nov-19 06:00N 37°48' W 122°24'0 0.0
2017-Nov-19 05:30N 37°48' W 122°24'0 0.0
2017-Nov-19 05:00N 37°48' W 122°24'0 0.0
2017-Nov-19 04:30N 37°48' W 122°24'0 0.0
2017-Nov-19 04:00N 37°48' W 122°24'0 0.0
2017-Nov-19 03:30N 37°48' W 122°24'4 8.1
2017-Nov-19 03:00N 37°48' W 122°19'1 2.5
2017-Nov-19 02:30N 37°48' W 122°17'2 3.3
2017-Nov-19 02:00N 37°48' W 122°19'3 6.3
2017-Nov-19 01:30N 37°48' W 122°23'0 1.0
2017-Nov-19 01:00N 37°48' W 122°24'0 0.0
2017-Nov-19 00:30N 37°48' W 122°24'0 0.0
2017-Nov-19 00:00N 37°48' W 122°24'0 0.0
2017-Nov-18 23:30N 37°48' W 122°24'0 0.1
2017-Nov-18 23:00N 37°48' W 122°24'0 0.1
2017-Nov-18 22:30N 37°48' W 122°24'0 0.0
2017-Nov-18 22:00N 37°48' W 122°24'0 0.0
2017-Nov-18 21:30N 37°48' W 122°24'0 0.0
2017-Nov-18 21:00N 37°48' W 122°24'0 0.0
2017-Nov-18 20:30N 37°48' W 122°24'0 0.0
2017-Nov-18 20:00N 37°48' W 122°24'2 3.1
2017-Nov-18 19:30N 37°49' W 122°26'4 7.7
2017-Nov-18 19:00N 37°49' W 122°30'1 1.6
2017-Nov-18 18:30N 37°49' W 122°29'4 8.4
2017-Nov-18 18:00N 37°51' W 122°25'4 7.7
2017-Nov-18 17:30N 37°55' W 122°27'4 7.8
2017-Nov-18 16:58N 37°59' W 122°26'510.0
2017-Nov-18 16:30N 38°02' W 122°22'4 8.1
2017-Nov-18 16:00N 38°04' W 122°17'1 2.2
2017-Nov-18 15:30N 38°03' W 122°16'0 0.0
2017-Nov-18 14:57N 38°03' W 122°16'1 0.2
2017-Nov-18 10:48N 38°03' W 122°15'0 0.2
2017-Nov-18 10:30N 38°03' W 122°15'0 0.0
2017-Nov-18 10:00N 38°03' W 122°15'0 0.0
2017-Nov-18 09:23N 38°03' W 122°15'0 0.0
2017-Nov-18 09:00N 38°03' W 122°15'0 0.0
2017-Nov-18 08:30N 38°03' W 122°15'0 0.0
2017-Nov-18 07:57N 38°03' W 122°15'0 0.1
2017-Nov-18 07:30N 38°03' W 122°15'0 0.1
2017-Nov-18 07:00N 38°03' W 122°15'0 0.0
2017-Nov-18 02:53N 38°03' W 122°15'3 7.2
2017-Nov-18 02:29N 38°03' W 122°11'2 0.1
2017-Nov-17 05:27N 38°02' W 122°08'0 0.0
2017-Nov-16 04:33N 38°02' W 122°08'0 0.1
2017-Nov-16 04:23N 38°02' W 122°08'0 0.0
2017-Nov-16 03:59N 38°02' W 122°08'1 1.4
2017-Nov-16 03:30N 38°02' W 122°09'1 1.2
2017-Nov-16 02:58N 38°02' W 122°08'2 0.3
2017-Nov-15 21:20N 38°03' W 122°10'3 7.9
2017-Nov-15 21:00N 38°04' W 122°13'2 3.7
2017-Nov-15 20:30N 38°03' W 122°16'0 0.0
2017-Nov-15 19:59N 38°03' W 122°16'0 0.2
2017-Nov-15 19:28N 38°04' W 122°16'1 1.0
2017-Nov-15 18:58N 38°04' W 122°15'6 3.7
2017-Nov-15 17:27N 38°02' W 122°08'2 4.2
2017-Nov-15 17:00N 38°03' W 122°10'610.4
2017-Nov-15 16:28N 38°03' W 122°17'6 8.5
2017-Nov-15 15:46N 38°01' W 122°24'312.3
2017-Nov-15 15:30N 37°58' W 122°26'611.7
2017-Nov-15 15:00N 37°52' W 122°25'510.5
2017-Nov-15 14:30N 37°48' W 122°22'3 6.1
2017-Nov-15 14:00N 37°45' W 122°20'0 0.3
2017-Nov-15 13:30N 37°45' W 122°20'3 5.7
2017-Nov-15 13:00N 37°47' W 122°23'2 3.1
2017-Nov-15 12:30N 37°48' W 122°24'0 0.0
2017-Nov-15 12:00N 37°48' W 122°24'0 0.0
2017-Nov-15 11:30N 37°48' W 122°24'0 0.0
2017-Nov-15 11:00N 37°48' W 122°24'0 0.0
2017-Nov-15 10:30N 37°48' W 122°24'0 0.0
2017-Nov-15 10:00N 37°48' W 122°24'0 0.0
2017-Nov-15 09:30N 37°48' W 122°24'0 0.0
2017-Nov-15 09:00N 37°48' W 122°24'0 0.0
2017-Nov-15 08:30N 37°48' W 122°24'0 0.0
2017-Nov-15 08:00N 37°48' W 122°24'0 0.0
2017-Nov-15 07:30N 37°48' W 122°24'0 0.0
2017-Nov-15 07:00N 37°48' W 122°24'0 0.0
2017-Nov-15 06:30N 37°48' W 122°24'0 0.0
2017-Nov-15 06:00N 37°48' W 122°24'0 0.0
2017-Nov-15 05:30N 37°48' W 122°24'0 0.0
2017-Nov-15 05:00N 37°48' W 122°24'0 0.0
2017-Nov-15 04:30N 37°48' W 122°24'0 0.0
2017-Nov-15 04:00N 37°48' W 122°24'0 0.0
2017-Nov-15 03:30N 37°48' W 122°24'0 0.0
2017-Nov-15 03:00N 37°48' W 122°24'0 0.0
2017-Nov-15 02:30N 37°48' W 122°24'0 0.0
2017-Nov-15 02:00N 37°48' W 122°24'0 0.0
2017-Nov-15 01:30N 37°48' W 122°24'0 0.9
2017-Nov-15 01:00N 37°48' W 122°23'4 7.1
2017-Nov-15 00:30N 37°48' W 122°19'0 0.0
2017-Nov-15 00:00N 37°48' W 122°19'1 2.5
2017-Nov-14 23:30N 37°48' W 122°17'1 1.1
2017-Nov-14 23:00N 37°47' W 122°18'2 3.5
2017-Nov-14 22:30N 37°48' W 122°20'3 5.2
2017-Nov-14 22:00N 37°48' W 122°23'0 0.8
2017-Nov-14 21:30N 37°48' W 122°24'0 0.1
2017-Nov-14 21:00N 37°48' W 122°24'0 0.1
2017-Nov-14 20:30N 37°48' W 122°24'0 0.0
2017-Nov-14 20:00N 37°48' W 122°24'0 0.0
2017-Nov-14 19:30N 37°48' W 122°24'2 4.4
2017-Nov-14 19:00N 37°50' W 122°24'5 9.3
2017-Nov-14 18:30N 37°55' W 122°25'1 1.6
2017-Nov-14 18:00N 37°55' W 122°25'0 0.1
2017-Nov-14 17:30N 37°55' W 122°25'0 0.7
2017-Nov-14 16:55N 37°56' W 122°25'0 0.0
2017-Nov-14 16:25N 37°56' W 122°25'0 0.0
2017-Nov-14 15:57N 37°56' W 122°25'0 0.0
2017-Nov-14 15:30N 37°56' W 122°25'0 0.0
2017-Nov-14 15:00N 37°56' W 122°25'0 0.3
2017-Nov-14 14:27N 37°56' W 122°25'0 0.5
2017-Nov-14 14:00N 37°56' W 122°25'3 5.9
2017-Nov-14 13:30N 37°53' W 122°25'4 7.2
2017-Nov-14 13:00N 37°50' W 122°28'2 4.9
2017-Nov-14 12:30N 37°48' W 122°30'0 0.7
2017-Nov-14 12:00N 37°48' W 122°29'2 4.7
2017-Nov-14 11:30N 37°50' W 122°28'5 9.3
2017-Nov-14 11:00N 37°54' W 122°25'1 2.9
2017-Nov-14 10:30N 37°56' W 122°25'0 0.0
2017-Nov-14 10:00N 37°56' W 122°25'0 0.0
2017-Nov-14 09:30N 37°56' W 122°25'0 0.0
2017-Nov-14 08:57N 37°56' W 122°25'3 6.6
2017-Nov-14 08:27N 37°59' W 122°26'510.4
2017-Nov-14 08:00N 38°02' W 122°21'4 8.6
2017-Nov-14 07:30N 38°03' W 122°16'0 0.8
2017-Nov-14 07:00N 38°03' W 122°16'0 0.0
2017-Nov-14 06:26N 38°03' W 122°16'0 0.1
2017-Nov-14 06:00N 38°03' W 122°16'1 1.3
2017-Nov-14 05:27N 38°04' W 122°17'5 6.8
2017-Nov-14 04:43N 38°02' W 122°22'2 8.8
2017-Nov-14 04:29N 38°00' W 122°25'510.8
2017-Nov-14 04:00N 37°56' W 122°27'510.5
2017-Nov-14 03:30N 37°51' W 122°25'3 6.9
2017-Nov-14 03:00N 37°49' W 122°28'1 2.9
2017-Nov-14 02:30N 37°48' W 122°30'0 0.4
2017-Nov-14 02:00N 37°48' W 122°30'2 4.4
2017-Nov-14 01:30N 37°49' W 122°27'4 7.0
2017-Nov-14 01:00N 37°48' W 122°23'2 3.9
2017-Nov-14 00:30N 37°48' W 122°20'0 0.3
2017-Nov-14 00:00N 37°49' W 122°20'3 5.7
2017-Nov-13 23:30N 37°48' W 122°24'0 0.0
2017-Nov-13 23:00N 37°48' W 122°24'0 0.0
2017-Nov-13 22:30N 37°48' W 122°24'3 5.7
2017-Nov-13 22:00N 37°51' W 122°25'4 0.2
2017-Nov-13 02:00N 37°48' W 122°21'0 0.6
2017-Nov-13 01:30N 37°49' W 122°20'1 1.1
2017-Nov-13 01:00N 37°49' W 122°20'2 4.9
2017-Nov-13 00:30N 37°48' W 122°23'2 3.3
2017-Nov-13 00:00N 37°48' W 122°21'0 0.0
2017-Nov-12 23:30N 37°48' W 122°21'1 1.8
2017-Nov-12 23:01N 37°49' W 122°19'0 0.1
2017-Nov-12 22:30N 37°49' W 122°19'4 7.6
2017-Nov-12 22:00N 37°51' W 122°23'3 6.7
2017-Nov-12 21:30N 37°54' W 122°24'1 3.1
2017-Nov-12 21:00N 37°55' W 122°22'0 0.0
2017-Nov-12 20:31N 37°55' W 122°22'0 0.0
2017-Nov-12 20:01N 37°55' W 122°22'0 0.0
2017-Nov-12 19:30N 37°55' W 122°22'0 0.4
2017-Nov-12 19:00N 37°55' W 122°22'0 0.0
2017-Nov-12 18:30N 37°55' W 122°22'0 0.0
2017-Nov-12 18:00N 37°55' W 122°22'0 0.0
2017-Nov-12 17:30N 37°55' W 122°22'0 0.0
2017-Nov-12 17:00N 37°55' W 122°22'0 0.0
2017-Nov-12 16:30N 37°55' W 122°22'0 0.0
2017-Nov-12 16:00N 37°55' W 122°22'0 0.0
2017-Nov-12 15:30N 37°55' W 122°22'0 0.0
2017-Nov-12 15:00N 37°55' W 122°22'0 0.0
2017-Nov-12 14:29N 37°55' W 122°22'0 0.0
2017-Nov-12 14:00N 37°55' W 122°22'0 0.0
2017-Nov-12 13:30N 37°55' W 122°22'1 3.0
2017-Nov-12 13:00N 37°54' W 122°24'1 2.6
2017-Nov-12 12:30N 37°54' W 122°25'3 6.9
2017-Nov-12 12:00N 37°50' W 122°24'2 4.0
2017-Nov-12 11:29N 37°48' W 122°24'0 0.0
2017-Nov-12 11:00N 37°48' W 122°24'0 0.0
2017-Nov-12 10:30N 37°48' W 122°24'0 0.0
2017-Nov-12 10:00N 37°48' W 122°24'0 0.0
2017-Nov-12 09:30N 37°48' W 122°24'0 0.0
2017-Nov-12 09:00N 37°48' W 122°24'0 0.0
2017-Nov-12 08:30N 37°48' W 122°24'0 0.0
2017-Nov-12 08:00N 37°48' W 122°24'0 0.0
2017-Nov-12 07:30N 37°48' W 122°24'0 0.0
2017-Nov-12 07:00N 37°48' W 122°24'0 0.0
2017-Nov-12 06:30N 37°48' W 122°24'0 0.0
2017-Nov-12 06:00N 37°48' W 122°24'0 0.0
2017-Nov-12 05:30N 37°48' W 122°24'0 0.0
2017-Nov-12 05:00N 37°48' W 122°24'0 0.0
2017-Nov-12 04:30N 37°48' W 122°24'0 0.0
2017-Nov-12 04:00N 37°48' W 122°24'0 0.0
2017-Nov-12 03:30N 37°48' W 122°24'0 0.0
2017-Nov-12 03:00N 37°48' W 122°24'0 0.0
2017-Nov-12 02:30N 37°48' W 122°24'0 0.0
2017-Nov-12 02:00N 37°48' W 122°24'0 0.0
2017-Nov-12 01:30N 37°48' W 122°24'0 0.0
2017-Nov-12 01:00N 37°48' W 122°24'0 0.0
2017-Nov-12 00:30N 37°48' W 122°24'0 0.0
2017-Nov-12 00:00N 37°48' W 122°24'0 0.0
2017-Nov-11 23:30N 37°48' W 122°24'0 0.0
2017-Nov-11 23:00N 37°48' W 122°24'0 0.0
2017-Nov-11 22:30N 37°48' W 122°24'0 0.0
2017-Nov-11 22:00N 37°48' W 122°24'0 0.0
2017-Nov-11 21:30N 37°48' W 122°24'0 0.0
2017-Nov-11 21:00N 37°48' W 122°24'2 4.6
2017-Nov-11 20:30N 37°48' W 122°21'3 5.9
2017-Nov-11 20:01N 37°47' W 122°17'  

Dump ship's entire track history